Time,TemperatureF,DewpointF,PressureIn,WindDirection,WindDirectionDegrees,WindSpeedMPH,WindSpeedGustMPH,Humidity,HourlyPrecipIn,Conditions,Clouds,dailyrainin,SoftwareType,DateUTC
2013-06-09 00:00:00,65.3,35.5,29.85,WSW,248,0.0,0.0,33,0.00,,---,0.00,VWS V14.01,2013-06-09 07:00:00,
2013-06-09 00:05:00,64.9,35.2,29.85,WSW,248,0.0,0.0,33,0.00,,---,0.00,VWS V14.01,2013-06-09 07:05:00,
2013-06-09 00:10:00,64.6,34.8,29.85,NW,315,0.0,0.0,33,0.00,,---,0.00,VWS V14.01,2013-06-09 07:10:00,
2013-06-09 00:15:00,64.6,35.6,29.85,West,270,0.0,0.0,34,0.00,,---,0.00,VWS V14.01,2013-06-09 07:15:00,
2013-06-09 00:20:00,64.0,35.1,29.85,NW,315,0.0,0.0,34,0.00,,---,0.00,VWS V14.01,2013-06-09 07:20:00,
2013-06-09 00:25:00,63.5,34.7,29.85,WNW,292,2.0,2.0,34,0.00,,---,0.00,VWS V14.01,2013-06-09 07:25:00,
2013-06-09 00:30:00,63.7,34.8,29.85,NW,315,0.0,0.0,34,0.00,,---,0.00,VWS V14.01,2013-06-09 07:30:00,
2013-06-09 00:35:00,63.5,34.7,29.85,WSW,248,0.0,0.0,34,0.00,,---,0.00,VWS V14.01,2013-06-09 07:35:00,
2013-06-09 00:40:00,63.5,34.7,29.85,NW,315,0.0,0.0,34,0.00,,---,0.00,VWS V14.01,2013-06-09 07:40:00,
2013-06-09 00:46:00,63.3,34.5,29.85,WSW,248,0.0,0.0,34,0.00,,---,0.00,VWS V14.01,2013-06-09 07:46:00,
2013-06-09 00:51:00,62.8,34.8,29.85,West,270,0.0,0.0,35,0.00,,---,0.00,VWS V14.01,2013-06-09 07:51:00,
2013-06-09 00:56:00,62.8,34.8,29.85,WSW,248,0.0,0.0,35,0.00,,---,0.00,VWS V14.01,2013-06-09 07:56:00,
2013-06-09 01:01:00,62.6,34.6,29.85,WSW,248,2.7,2.7,35,0.00,,---,0.00,VWS V14.01,2013-06-09 08:01:00,
2013-06-09 01:06:00,62.6,34.6,29.85,WSW,248,1.6,1.6,35,0.00,,---,0.00,VWS V14.01,2013-06-09 08:06:00,
2013-06-09 01:11:00,62.4,35.1,29.85,SW,225,0.0,0.0,36,0.00,,---,0.00,VWS V14.01,2013-06-09 08:11:00,
2013-06-09 01:16:00,62.4,35.1,29.85,WSW,248,0.0,0.0,36,0.00,,---,0.00,VWS V14.01,2013-06-09 08:16:00,
2013-06-09 01:21:00,62.1,34.8,29.85,WNW,292,0.0,0.0,36,0.00,,---,0.00,VWS V14.01,2013-06-09 08:21:00,
2013-06-09 01:27:00,61.9,34.7,29.85,WSW,248,0.0,0.0,36,0.00,,---,0.00,VWS V14.01,2013-06-09 08:27:00,
2013-06-09 01:32:00,61.7,35.2,29.85,SW,225,3.4,3.4,37,0.00,,---,0.00,VWS V14.01,2013-06-09 08:32:00,
2013-06-09 01:37:00,61.7,35.2,29.85,SW,225,0.0,0.0,37,0.00,,---,0.00,VWS V14.01,2013-06-09 08:37:00,
2013-06-09 01:42:00,61.0,34.5,29.85,WSW,248,0.0,0.0,37,0.00,,---,0.00,VWS V14.01,2013-06-09 08:42:00,
2013-06-09 01:47:00,60.6,34.2,29.82,SW,225,0.0,0.0,37,0.00,,---,0.00,VWS V14.01,2013-06-09 08:47:00,
2013-06-09 01:52:00,60.8,35.1,29.82,WSW,248,1.6,1.6,38,0.00,,---,0.00,VWS V14.01,2013-06-09 08:52:00,
2013-06-09 01:57:00,60.6,34.9,29.82,SW,225,2.2,2.2,38,0.00,,---,0.00,VWS V14.01,2013-06-09 08:57:00,
2013-06-09 02:02:00,60.4,34.7,29.82,WSW,248,0.0,0.0,38,0.00,,---,0.00,VWS V14.01,2013-06-09 09:02:00,
2013-06-09 02:07:00,60.1,35.1,29.82,SW,225,0.0,0.0,39,0.00,,---,0.00,VWS V14.01,2013-06-09 09:07:00,
2013-06-09 02:12:00,60.3,35.9,29.82,SW,225,2.9,2.9,40,0.00,,---,0.00,VWS V14.01,2013-06-09 09:12:00,
2013-06-09 02:17:00,60.1,35.1,29.85,WSW,248,0.0,0.0,39,0.00,,---,0.00,VWS V14.01,2013-06-09 09:17:00,
2013-06-09 02:22:00,59.7,34.7,29.85,WSW,248,0.0,0.0,39,0.00,,---,0.00,VWS V14.01,2013-06-09 09:22:00,
2013-06-09 02:27:00,59.4,35.1,29.85,WSW,248,0.0,0.0,40,0.00,,---,0.00,VWS V14.01,2013-06-09 09:27:00,
2013-06-09 02:33:00,59.5,35.8,29.85,SW,225,0.0,0.0,41,0.00,,---,0.00,VWS V14.01,2013-06-09 09:33:00,
2013-06-09 02:38:00,59.2,35.5,29.85,WSW,248,0.0,0.0,41,0.00,,---,0.00,VWS V14.01,2013-06-09 09:38:00,
2013-06-09 02:43:00,59.2,36.7,29.85,SW,225,0.0,0.0,43,0.00,,---,0.00,VWS V14.01,2013-06-09 09:43:00,
2013-06-09 02:48:00,58.8,35.8,29.85,SW,225,0.0,0.0,42,0.00,,---,0.00,VWS V14.01,2013-06-09 09:48:00,
2013-06-09 02:53:00,58.5,34.9,29.85,WSW,248,0.0,0.0,41,0.00,,---,0.00,VWS V14.01,2013-06-09 09:53:00,
2013-06-09 02:58:00,58.1,35.2,29.85,SSW,202,2.5,2.5,42,0.00,,---,0.00,VWS V14.01,2013-06-09 09:58:00,
2013-06-09 03:03:00,58.3,35.9,29.85,WSW,248,2.2,2.2,43,0.00,,---,0.00,VWS V14.01,2013-06-09 10:03:00,
2013-06-09 03:08:00,58.1,36.3,29.85,East,90,1.3,1.3,44,0.00,,---,0.00,VWS V14.01,2013-06-09 10:08:00,
2013-06-09 03:13:00,58.1,36.3,29.85,SE,135,0.0,0.0,44,0.00,,---,0.00,VWS V14.01,2013-06-09 10:13:00,
2013-06-09 03:18:00,58.1,36.9,29.85,WSW,248,3.1,3.1,45,0.00,,---,0.00,VWS V14.01,2013-06-09 10:18:00,
2013-06-09 03:23:00,58.1,37.5,29.85,SSW,202,7.8,7.8,46,0.00,,---,0.00,VWS V14.01,2013-06-09 10:23:00,
2013-06-09 03:28:00,58.1,37.5,29.85,SSW,202,7.4,7.4,46,0.00,,---,0.00,VWS V14.01,2013-06-09 10:28:00,
2013-06-09 03:33:00,58.1,37.5,29.85,NNE,22,2.9,2.9,46,0.00,,---,0.00,VWS V14.01,2013-06-09 10:33:00,
2013-06-09 03:43:00,57.9,37.3,29.85,SW,225,4.0,4.0,46,0.00,,---,0.00,VWS V14.01,2013-06-09 10:43:00,
2013-06-09 03:48:00,57.7,37.1,29.85,South,180,4.7,4.7,46,0.00,,---,0.00,VWS V14.01,2013-06-09 10:48:00,
2013-06-09 03:53:00,57.6,37.0,29.85,SSW,202,2.9,2.9,46,0.00,,---,0.00,VWS V14.01,2013-06-09 10:53:00,
2013-06-09 03:58:00,57.4,37.3,29.85,SSE,158,2.9,2.9,47,0.00,,---,0.00,VWS V14.01,2013-06-09 10:58:00,
2013-06-09 04:03:00,57.2,37.2,29.82,South,180,6.5,6.5,47,0.00,,---,0.00,VWS V14.01,2013-06-09 11:03:00,
2013-06-09 04:08:00,57.2,37.2,29.82,SSE,158,3.4,3.4,47,0.04,,---,0.04,VWS V14.01,2013-06-09 11:08:00,
2013-06-09 04:13:00,57.2,37.2,29.82,SW,225,4.3,4.3,47,0.04,,---,0.04,VWS V14.01,2013-06-09 11:13:00,
2013-06-09 04:18:00,57.0,37.0,29.82,WSW,248,2.0,2.0,47,0.04,,---,0.04,VWS V14.01,2013-06-09 11:18:00,
2013-06-09 04:23:00,56.8,37.4,29.82,SW,225,2.0,2.0,48,0.04,,---,0.04,VWS V14.01,2013-06-09 11:23:00,
2013-06-09 04:28:00,56.7,37.2,29.82,SW,225,4.3,4.3,48,0.04,,---,0.04,VWS V14.01,2013-06-09 11:28:00,
2013-06-09 04:33:00,56.7,37.2,29.82,NNW,338,2.7,2.7,48,0.04,,---,0.04,VWS V14.01,2013-06-09 11:33:00,
2013-06-09 04:38:00,56.5,37.0,29.82,SW,225,1.3,1.3,48,0.04,,---,0.04,VWS V14.01,2013-06-09 11:38:00,
2013-06-09 04:44:00,56.3,36.9,29.85,North,0,4.0,4.0,48,0.04,,---,0.04,VWS V14.01,2013-06-09 11:44:00,
2013-06-09 04:49:00,55.9,36.5,29.85,WNW,292,0.0,0.0,48,0.04,,---,0.04,VWS V14.01,2013-06-09 11:49:00,
2013-06-09 04:54:00,55.8,36.4,29.85,West,270,2.2,2.2,48,0.04,,---,0.04,VWS V14.01,2013-06-09 11:54:00,
2013-06-09 04:59:00,55.4,36.1,29.85,NNW,338,0.0,0.0,48,0.00,,---,0.04,VWS V14.01,2013-06-09 11:59:00,
2013-06-09 05:04:00,54.9,36.1,29.85,WSW,248,0.0,0.0,49,0.00,,---,0.04,VWS V14.01,2013-06-09 12:04:00,
2013-06-09 05:09:00,55.0,36.2,29.85,NW,315,2.7,2.7,49,0.00,,---,0.04,VWS V14.01,2013-06-09 12:09:00,
2013-06-09 05:14:00,55.4,36.6,29.85,NW,315,0.0,0.0,49,0.00,,---,0.04,VWS V14.01,2013-06-09 12:14:00,
2013-06-09 05:19:00,55.6,36.7,29.85,West,270,0.0,0.0,49,0.00,,---,0.04,VWS V14.01,2013-06-09 12:19:00,
2013-06-09 05:24:00,55.8,36.9,29.85,NW,315,0.0,0.0,49,0.00,,---,0.04,VWS V14.01,2013-06-09 12:24:00,
2013-06-09 05:29:00,55.8,36.4,29.85,WSW,248,0.0,0.0,48,0.00,,---,0.04,VWS V14.01,2013-06-09 12:29:00,
2013-06-09 05:34:00,55.9,36.5,29.85,SW,225,0.0,0.0,48,0.00,,---,0.04,VWS V14.01,2013-06-09 12:34:00,
2013-06-09 05:39:00,56.5,37.0,29.85,SW,225,0.0,0.0,48,0.00,,---,0.04,VWS V14.01,2013-06-09 12:39:00,
2013-06-09 05:44:00,56.8,37.4,29.85,SSW,202,0.0,0.0,48,0.00,,---,0.04,VWS V14.01,2013-06-09 12:44:00,
2013-06-09 05:50:00,57.7,37.7,29.85,NW,315,1.6,1.6,47,0.00,,---,0.04,VWS V14.01,2013-06-09 12:50:00,
2013-06-09 05:55:00,58.5,37.8,29.85,WSW,248,0.0,0.0,46,0.00,,---,0.04,VWS V14.01,2013-06-09 12:55:00,
2013-06-09 06:00:00,58.5,37.8,29.88,NW,315,0.0,0.0,46,0.00,,---,0.04,VWS V14.01,2013-06-09 13:00:00,
2013-06-09 06:05:00,58.6,37.4,29.88,WNW,292,0.0,0.0,45,0.00,,---,0.04,VWS V14.01,2013-06-09 13:05:00,
2013-06-09 06:10:00,58.8,37.5,29.88,WNW,292,0.0,0.0,45,0.00,,---,0.04,VWS V14.01,2013-06-09 13:10:00,
2013-06-09 06:15:00,59.5,38.2,29.88,North,0,0.0,0.0,45,0.00,,---,0.04,VWS V14.01,2013-06-09 13:15:00,
2013-06-09 06:20:00,59.7,37.8,29.88,WSW,248,0.0,0.0,44,0.00,,---,0.04,VWS V14.01,2013-06-09 13:20:00,
2013-06-09 06:25:00,60.4,38.4,29.88,West,270,0.0,0.0,44,0.00,,---,0.04,VWS V14.01,2013-06-09 13:25:00,
2013-06-09 06:30:00,61.2,37.9,29.88,North,0,0.0,0.0,42,0.00,,---,0.04,VWS V14.01,2013-06-09 13:30:00,
2013-06-09 06:35:00,61.7,37.8,29.88,WNW,292,0.0,0.0,41,0.00,,---,0.04,VWS V14.01,2013-06-09 13:35:00,
2013-06-09 06:40:00,61.9,38.0,29.88,WSW,248,5.8,5.8,41,0.00,,---,0.04,VWS V14.01,2013-06-09 13:40:00,
2013-06-09 06:45:00,61.5,37.0,29.88,SW,225,0.0,0.0,40,0.00,,---,0.04,VWS V14.01,2013-06-09 13:45:00,
2013-06-09 06:50:00,61.7,36.5,29.88,SW,225,0.0,0.0,39,0.00,,---,0.04,VWS V14.01,2013-06-09 13:50:00,
2013-06-09 06:55:00,62.1,36.8,29.88,SW,225,2.5,2.5,39,0.00,,---,0.04,VWS V14.01,2013-06-09 13:55:00,
2013-06-09 07:00:00,62.2,37.0,29.91,WSW,248,4.9,4.9,39,0.00,,---,0.04,VWS V14.01,2013-06-09 14:00:00,
2013-06-09 07:06:00,62.6,36.7,29.91,West,270,4.9,4.9,38,0.00,,---,0.04,VWS V14.01,2013-06-09 14:06:00,
2013-06-09 07:11:00,62.8,36.8,29.91,SW,225,3.8,3.8,38,0.00,,---,0.04,VWS V14.01,2013-06-09 14:11:00,
2013-06-09 07:16:00,63.1,37.1,29.91,SW,225,0.0,0.0,38,0.00,,---,0.04,VWS V14.01,2013-06-09 14:16:00,
2013-06-09 07:21:00,63.3,36.6,29.91,SSW,202,0.0,0.0,37,0.00,,---,0.04,VWS V14.01,2013-06-09 14:21:00,
2013-06-09 07:26:00,64.0,37.3,29.91,WSW,248,2.9,2.9,37,0.00,,---,0.04,VWS V14.01,2013-06-09 14:26:00,
2013-06-09 07:31:00,64.8,37.9,29.91,SSW,202,2.7,2.7,37,0.00,,---,0.04,VWS V14.01,2013-06-09 14:31:00,
2013-06-09 07:36:00,66.0,38.3,29.91,WNW,292,2.9,2.9,36,0.00,,---,0.04,VWS V14.01,2013-06-09 14:36:00,
2013-06-09 07:42:00,66.6,38.1,29.91,WSW,248,2.5,2.5,35,0.00,,---,0.04,VWS V14.01,2013-06-09 14:42:00,
2013-06-09 07:47:00,66.6,38.1,29.91,WSW,248,1.1,1.1,35,0.00,,---,0.04,VWS V14.01,2013-06-09 14:47:00,
2013-06-09 07:52:00,66.9,38.4,29.91,SW,225,3.8,3.8,35,0.00,,---,0.04,VWS V14.01,2013-06-09 14:52:00,
2013-06-09 07:57:00,66.7,38.2,29.91,WSW,248,2.5,2.5,35,0.00,,---,0.04,VWS V14.01,2013-06-09 14:57:00,
2013-06-09 08:02:00,68.0,38.6,29.91,SW,225,0.0,0.0,34,0.00,,---,0.04,VWS V14.01,2013-06-09 15:02:00,
2013-06-09 08:07:00,68.0,38.6,29.91,SW,225,2.5,2.5,34,0.00,,---,0.04,VWS V14.01,2013-06-09 15:07:00,
2013-06-09 08:12:00,68.0,38.6,29.91,SSW,202,0.0,0.0,34,0.00,,---,0.04,VWS V14.01,2013-06-09 15:12:00,
2013-06-09 08:17:00,68.5,38.3,29.88,SSW,202,2.9,2.9,33,0.00,,---,0.04,VWS V14.01,2013-06-09 15:17:00,
2013-06-09 08:22:00,69.1,38.8,29.88,SW,225,0.0,0.0,33,0.00,,---,0.04,VWS V14.01,2013-06-09 15:22:00,
2013-06-09 08:27:00,69.6,39.3,29.88,SW,225,0.0,0.0,33,0.00,,---,0.04,VWS V14.01,2013-06-09 15:27:00,
2013-06-09 08:32:00,70.3,39.9,29.91,SW,225,2.2,2.2,33,0.00,,---,0.04,VWS V14.01,2013-06-09 15:32:00,
2013-06-09 08:37:00,70.9,39.6,29.91,SW,225,7.2,7.2,32,0.00,,---,0.04,VWS V14.01,2013-06-09 15:37:00,
2013-06-09 08:43:00,70.7,39.4,29.91,SW,225,3.4,3.4,32,0.00,,---,0.04,VWS V14.01,2013-06-09 15:43:00,
2013-06-09 08:48:00,72.3,40.8,29.91,West,270,1.6,1.6,32,0.00,,---,0.04,VWS V14.01,2013-06-09 15:48:00,
2013-06-09 08:53:00,72.3,40.0,29.91,South,180,4.9,4.9,31,0.00,,---,0.04,VWS V14.01,2013-06-09 15:53:00,
2013-06-09 08:58:00,71.6,38.6,29.91,SW,225,5.8,5.8,30,0.00,,---,0.04,VWS V14.01,2013-06-09 15:58:00,
2013-06-09 09:03:00,72.7,40.3,29.88,SW,225,0.0,0.0,31,0.00,,---,0.04,VWS V14.01,2013-06-09 16:03:00,
2013-06-09 09:08:00,73.4,41.0,29.88,West,270,3.1,3.1,31,0.00,,---,0.04,VWS V14.01,2013-06-09 16:08:00,
2013-06-09 09:13:00,73.0,39.8,29.91,West,270,0.0,0.0,30,0.00,,---,0.04,VWS V14.01,2013-06-09 16:13:00,
2013-06-09 09:18:00,73.8,39.5,29.91,North,0,2.7,2.7,29,0.00,,---,0.04,VWS V14.01,2013-06-09 16:18:00,
2013-06-09 09:23:00,75.2,40.8,29.91,West,270,2.7,2.7,29,0.00,,---,0.04,VWS V14.01,2013-06-09 16:23:00,
2013-06-09 09:28:00,74.8,38.7,29.91,NNW,338,2.2,2.2,27,0.00,,---,0.04,VWS V14.01,2013-06-09 16:28:00,
2013-06-09 09:33:00,75.6,39.3,29.91,SW,225,3.6,3.6,27,0.00,,---,0.04,VWS V14.01,2013-06-09 16:33:00,
2013-06-09 09:38:00,75.9,38.6,29.91,WSW,248,2.5,2.5,26,0.00,,---,0.04,VWS V14.01,2013-06-09 16:38:00,
2013-06-09 09:43:00,75.4,38.2,29.91,SW,225,1.6,1.6,26,0.00,,---,0.04,VWS V14.01,2013-06-09 16:43:00,
2013-06-09 09:48:00,75.9,38.6,29.91,SW,225,2.9,2.9,26,0.00,,---,0.04,VWS V14.01,2013-06-09 16:48:00,
2013-06-09 09:53:00,75.9,39.6,29.91,WNW,292,0.0,0.0,27,0.00,,---,0.04,VWS V14.01,2013-06-09 16:53:00,
2013-06-09 09:59:00,77.0,38.5,29.91,WSW,248,5.6,5.6,25,0.00,,---,0.04,VWS V14.01,2013-06-09 16:59:00,
2013-06-09 10:04:00,76.5,38.1,29.91,WSW,248,2.9,2.9,25,0.00,,---,0.04,VWS V14.01,2013-06-09 17:04:00,
2013-06-09 10:09:00,76.6,38.2,29.91,WNW,292,3.1,3.1,25,0.00,,---,0.04,VWS V14.01,2013-06-09 17:09:00,
2013-06-09 10:14:00,76.8,38.4,29.91,WSW,248,3.8,3.8,25,0.00,,---,0.04,VWS V14.01,2013-06-09 17:14:00,
2013-06-09 10:19:00,76.5,37.0,29.91,NW,315,4.7,4.7,24,0.00,,---,0.04,VWS V14.01,2013-06-09 17:19:00,
2013-06-09 10:24:00,75.7,36.4,29.91,West,270,9.4,9.4,24,0.00,,---,0.04,VWS V14.01,2013-06-09 17:24:00,
2013-06-09 10:29:00,75.6,36.3,29.88,WNW,292,6.5,6.5,24,0.00,,---,0.04,VWS V14.01,2013-06-09 17:29:00,
2013-06-09 10:34:00,76.1,35.7,29.88,SW,225,2.0,2.0,23,0.00,,---,0.04,VWS V14.01,2013-06-09 17:34:00,
2013-06-09 10:39:00,76.3,35.8,29.88,WSW,248,3.4,3.4,23,0.00,,---,0.04,VWS V14.01,2013-06-09 17:39:00,
2013-06-09 10:44:00,76.1,35.7,29.88,SW,225,1.1,1.1,23,0.00,,---,0.04,VWS V14.01,2013-06-09 17:44:00,
2013-06-09 10:49:00,76.6,36.1,29.88,NW,315,2.7,2.7,23,0.00,,---,0.04,VWS V14.01,2013-06-09 17:49:00,
2013-06-09 10:54:00,76.5,34.8,29.88,SSW,202,3.4,3.4,22,0.00,,---,0.04,VWS V14.01,2013-06-09 17:54:00,
2013-06-09 10:59:00,77.5,35.7,29.88,SSW,202,3.6,3.6,22,0.00,,---,0.04,VWS V14.01,2013-06-09 17:59:00,
2013-06-09 11:04:00,77.7,35.9,29.88,WSW,248,2.0,2.0,22,0.00,,---,0.04,VWS V14.01,2013-06-09 18:04:00,
2013-06-09 11:09:00,77.4,34.4,29.88,WSW,248,1.6,1.6,21,0.00,,---,0.04,VWS V14.01,2013-06-09 18:09:00,
2013-06-09 11:14:00,77.5,34.6,29.88,WSW,248,3.4,3.4,21,0.00,,---,0.04,VWS V14.01,2013-06-09 18:14:00,
2013-06-09 11:19:00,77.9,34.9,29.88,West,270,3.4,3.4,21,0.00,,---,0.04,VWS V14.01,2013-06-09 18:19:00,
2013-06-09 11:25:00,76.1,33.4,29.88,West,270,2.5,2.5,21,0.00,,---,0.04,VWS V14.01,2013-06-09 18:25:00,
2013-06-09 11:30:00,78.1,35.0,29.88,WSW,248,2.9,2.9,21,0.00,,---,0.04,VWS V14.01,2013-06-09 18:30:00,
2013-06-09 11:35:00,77.2,33.0,29.88,WSW,248,3.6,3.6,20,0.00,,---,0.04,VWS V14.01,2013-06-09 18:35:00,
2013-06-09 11:40:00,77.5,33.3,29.88,WSW,248,2.0,2.0,20,0.00,,---,0.04,VWS V14.01,2013-06-09 18:40:00,
2013-06-09 11:45:00,78.6,34.2,29.88,WNW,292,2.9,2.9,20,0.00,,---,0.04,VWS V14.01,2013-06-09 18:45:00,
2013-06-09 11:50:00,78.4,34.1,29.88,NNW,338,3.4,3.4,20,0.00,,---,0.04,VWS V14.01,2013-06-09 18:50:00,
2013-06-09 11:55:00,78.8,34.4,29.88,SW,225,3.6,3.6,20,0.00,,---,0.04,VWS V14.01,2013-06-09 18:55:00,
2013-06-09 12:00:00,77.7,33.5,29.88,WSW,248,1.1,1.1,20,0.00,,---,0.04,VWS V14.01,2013-06-09 19:00:00,
2013-06-09 12:05:00,77.7,33.5,29.88,SW,225,2.9,2.9,20,0.00,,---,0.04,VWS V14.01,2013-06-09 19:05:00,
2013-06-09 12:10:00,79.0,34.5,29.88,SW,225,3.4,3.4,20,0.00,,---,0.04,VWS V14.01,2013-06-09 19:10:00,
2013-06-09 12:15:00,79.7,35.1,29.85,North,0,1.6,1.6,20,0.00,,---,0.04,VWS V14.01,2013-06-09 19:15:00,
2013-06-09 12:20:00,79.3,34.8,29.85,West,270,0.9,0.9,20,0.00,,---,0.04,VWS V14.01,2013-06-09 19:20:00,
2013-06-09 12:25:00,79.9,35.3,29.85,SW,225,3.1,3.1,20,0.00,,---,0.04,VWS V14.01,2013-06-09 19:25:00,
2013-06-09 12:30:00,79.7,35.1,29.85,South,180,2.0,2.0,20,0.00,,---,0.04,VWS V14.01,2013-06-09 19:30:00,
2013-06-09 12:36:00,79.0,34.5,29.88,SW,225,2.5,2.5,20,0.00,,---,0.04,VWS V14.01,2013-06-09 19:36:00,
2013-06-09 12:41:00,80.4,35.7,29.88,WNW,292,3.4,3.4,20,0.00,,---,0.04,VWS V14.01,2013-06-09 19:41:00,
2013-06-09 12:46:00,80.4,35.7,29.88,WNW,292,2.0,2.0,20,0.00,,---,0.04,VWS V14.01,2013-06-09 19:46:00,
2013-06-09 12:51:00,80.4,35.7,29.88,SW,225,3.8,3.8,20,0.00,,---,0.04,VWS V14.01,2013-06-09 19:51:00,
2013-06-09 12:56:00,80.4,31.7,29.88,WSW,248,1.1,1.1,17,0.00,,---,0.04,VWS V14.01,2013-06-09 19:56:00,
2013-06-09 13:01:00,80.2,31.5,29.88,North,0,4.9,4.9,17,0.00,,---,0.04,VWS V14.01,2013-06-09 20:01:00,
2013-06-09 13:06:00,81.1,32.2,29.88,NNW,338,2.9,2.9,17,0.00,,---,0.04,VWS V14.01,2013-06-09 20:06:00,
2013-06-09 13:12:00,81.0,32.1,29.88,WNW,292,1.6,1.6,17,0.00,,---,0.04,VWS V14.01,2013-06-09 20:12:00,
2013-06-09 13:17:00,80.1,31.4,29.88,WNW,292,4.3,4.3,17,0.00,,---,0.04,VWS V14.01,2013-06-09 20:17:00,
2013-06-09 13:22:00,80.4,31.7,29.88,WNW,292,3.6,3.6,17,0.00,,---,0.04,VWS V14.01,2013-06-09 20:22:00,
2013-06-09 13:27:00,80.2,31.5,29.88,WSW,248,5.4,5.4,17,0.00,,---,0.04,VWS V14.01,2013-06-09 20:27:00,
2013-06-09 13:32:00,80.2,31.5,29.85,WNW,292,0.0,0.0,17,0.00,,---,0.04,VWS V14.01,2013-06-09 20:32:00,
2013-06-09 13:37:00,80.4,31.7,29.85,SW,225,1.6,1.6,17,0.00,,---,0.04,VWS V14.01,2013-06-09 20:37:00,
2013-06-09 13:42:00,81.1,32.2,29.85,West,270,2.0,2.0,17,0.00,,---,0.04,VWS V14.01,2013-06-09 20:42:00,
2013-06-09 13:47:00,81.1,32.2,29.88,WSW,248,1.6,1.6,17,0.00,,---,0.04,VWS V14.01,2013-06-09 20:47:00,
2013-06-09 14:00:00,81.9,32.8,29.88,WNW,292,1.3,1.3,17,0.00,,---,0.04,VWS V14.01,2013-06-09 21:00:00,
2013-06-09 14:05:00,81.0,32.1,29.88,WSW,248,1.3,1.3,17,0.00,,---,0.04,VWS V14.01,2013-06-09 21:05:00,
2013-06-09 14:10:00,81.0,32.1,29.88,WSW,248,4.3,4.3,17,0.00,,---,0.04,VWS V14.01,2013-06-09 21:10:00,
2013-06-09 14:15:00,80.6,31.8,29.85,West,270,2.7,2.7,17,0.00,,---,0.04,VWS V14.01,2013-06-09 21:15:00,
2013-06-09 14:20:00,81.0,32.1,29.85,WNW,292,2.7,2.7,17,0.00,,---,0.04,VWS V14.01,2013-06-09 21:20:00,
2013-06-09 14:25:00,81.0,32.1,29.85,WSW,248,2.0,2.0,17,0.00,,---,0.04,VWS V14.01,2013-06-09 21:25:00,
2013-06-09 14:30:00,81.1,32.2,29.85,WNW,292,1.6,1.6,17,0.00,,---,0.04,VWS V14.01,2013-06-09 21:30:00,
2013-06-09 14:35:00,81.3,27.6,29.85,West,270,1.1,1.1,14,0.00,,---,0.04,VWS V14.01,2013-06-09 21:35:00,
2013-06-09 14:40:00,81.0,32.1,29.85,WSW,248,2.7,2.7,17,0.00,,---,0.04,VWS V14.01,2013-06-09 21:40:00,
2013-06-09 14:46:00,81.0,32.1,29.85,NW,315,2.9,2.9,17,0.00,,---,0.04,VWS V14.01,2013-06-09 21:46:00,
2013-06-09 14:51:00,79.9,28.1,29.85,WNW,292,3.4,3.4,15,0.00,,---,0.04,VWS V14.01,2013-06-09 21:51:00,
2013-06-09 14:56:00,80.4,28.6,29.85,SW,225,1.3,1.3,15,0.00,,---,0.04,VWS V14.01,2013-06-09 21:56:00,
2013-06-09 15:01:00,80.1,28.3,29.85,NW,315,2.7,2.7,15,0.00,,---,0.04,VWS V14.01,2013-06-09 22:01:00,
2013-06-09 15:06:00,80.6,31.8,29.85,WSW,248,1.1,1.1,17,0.00,,---,0.04,VWS V14.01,2013-06-09 22:06:00,
2013-06-09 15:11:00,80.2,28.4,29.85,SW,225,3.1,3.1,15,0.00,,---,0.04,VWS V14.01,2013-06-09 22:11:00,
2013-06-09 15:16:00,79.9,28.1,29.85,WSW,248,2.9,2.9,15,0.00,,---,0.04,VWS V14.01,2013-06-09 22:16:00,
2013-06-09 15:21:00,79.7,28.0,29.85,West,270,1.1,1.1,15,0.00,,---,0.04,VWS V14.01,2013-06-09 22:21:00,
2013-06-09 15:26:00,81.1,32.2,29.85,SSW,202,3.4,3.4,17,0.00,,---,0.04,VWS V14.01,2013-06-09 22:26:00,
2013-06-09 15:31:00,81.7,32.7,29.85,WNW,292,3.6,3.6,17,0.00,,---,0.04,VWS V14.01,2013-06-09 22:31:00,
2013-06-09 15:36:00,81.7,27.9,29.85,West,270,0.9,0.9,14,0.00,,---,0.04,VWS V14.01,2013-06-09 22:36:00,
2013-06-09 15:41:00,80.8,27.2,29.85,NW,315,1.6,1.6,14,0.00,,---,0.04,VWS V14.01,2013-06-09 22:41:00,
2013-06-09 15:46:00,81.0,27.3,29.82,West,270,1.3,1.3,14,0.00,,---,0.04,VWS V14.01,2013-06-09 22:46:00,
2013-06-09 15:51:00,80.4,28.6,29.82,WSW,248,0.9,0.9,15,0.00,,---,0.04,VWS V14.01,2013-06-09 22:51:00,
2013-06-09 15:56:00,80.1,28.3,29.82,WSW,248,10.5,10.5,15,0.00,,---,0.04,VWS V14.01,2013-06-09 22:56:00,
2013-06-09 16:01:00,79.9,28.1,29.85,NW,315,2.9,2.9,15,0.00,,---,0.04,VWS V14.01,2013-06-09 23:01:00,
2013-06-09 16:06:00,79.9,28.1,29.85,SSW,202,5.8,5.8,15,0.00,,---,0.04,VWS V14.01,2013-06-09 23:06:00,
2013-06-09 16:11:00,80.1,28.3,29.85,WSW,248,3.4,3.4,15,0.00,,---,0.04,VWS V14.01,2013-06-09 23:11:00,
2013-06-09 16:16:00,80.4,28.6,29.82,WSW,248,3.1,3.1,15,0.00,,---,0.04,VWS V14.01,2013-06-09 23:16:00,
2013-06-09 16:21:00,80.2,28.4,29.82,NE,45,5.6,5.6,15,0.00,,---,0.04,VWS V14.01,2013-06-09 23:21:00,
2013-06-09 16:26:00,79.3,27.7,29.82,West,270,5.6,5.6,15,0.00,,---,0.04,VWS V14.01,2013-06-09 23:26:00,
2013-06-09 16:31:00,79.5,27.9,29.82,WNW,292,3.6,3.6,15,0.00,,---,0.04,VWS V14.01,2013-06-09 23:31:00,
2013-06-09 16:37:00,79.7,28.0,29.82,West,270,8.1,8.1,15,0.00,,---,0.04,VWS V14.01,2013-06-09 23:37:00,
2013-06-09 16:42:00,80.1,28.3,29.82,WSW,248,2.9,2.9,15,0.00,,---,0.04,VWS V14.01,2013-06-09 23:42:00,
2013-06-09 16:47:00,80.1,28.3,29.82,West,270,2.7,2.7,15,0.00,,---,0.04,VWS V14.01,2013-06-09 23:47:00,
2013-06-09 16:52:00,80.6,27.0,29.82,WSW,248,1.3,1.3,14,0.00,,---,0.04,VWS V14.01,2013-06-09 23:52:00,
2013-06-09 16:57:00,80.4,28.6,29.82,WNW,292,1.3,1.3,15,0.00,,---,0.04,VWS V14.01,2013-06-09 23:57:00,
2013-06-09 17:02:00,79.9,28.1,29.82,NW,315,1.6,1.6,15,0.00,,---,0.04,VWS V14.01,2013-06-10 00:02:00,
2013-06-09 17:07:00,80.2,28.4,29.82,WNW,292,1.3,1.3,15,0.00,,---,0.04,VWS V14.01,2013-06-10 00:07:00,
2013-06-09 17:12:00,80.2,28.4,29.82,North,0,0.0,0.0,15,0.00,,---,0.04,VWS V14.01,2013-06-10 00:12:00,
2013-06-09 17:17:00,79.9,28.1,29.82,SW,225,3.1,3.1,15,0.00,,---,0.04,VWS V14.01,2013-06-10 00:17:00,
2013-06-09 17:22:00,79.2,27.6,29.82,West,270,2.9,2.9,15,0.00,,---,0.04,VWS V14.01,2013-06-10 00:22:00,
2013-06-09 17:27:00,79.0,27.4,29.82,SSW,202,2.7,2.7,15,0.00,,---,0.04,VWS V14.01,2013-06-10 00:27:00,
2013-06-09 17:32:00,78.3,26.9,29.79,WNW,292,2.0,2.0,15,0.00,,---,0.04,VWS V14.01,2013-06-10 00:32:00,
2013-06-09 17:38:00,77.9,26.6,29.79,West,270,0.9,0.9,15,0.00,,---,0.04,VWS V14.01,2013-06-10 00:38:00,
2013-06-09 17:43:00,77.9,26.6,29.79,SW,225,0.9,0.9,15,0.00,,---,0.04,VWS V14.01,2013-06-10 00:43:00,
2013-06-09 17:48:00,77.5,26.3,29.82,WNW,292,1.6,1.6,15,0.00,,---,0.04,VWS V14.01,2013-06-10 00:48:00,
2013-06-09 17:53:00,77.2,26.0,29.82,WNW,292,2.5,2.5,15,0.00,,---,0.04,VWS V14.01,2013-06-10 00:53:00,
2013-06-09 17:58:00,77.2,26.0,29.82,West,270,0.0,0.0,15,0.00,,---,0.04,VWS V14.01,2013-06-10 00:58:00,
2013-06-09 18:03:00,77.0,25.9,29.82,West,270,2.7,2.7,15,0.00,,---,0.04,VWS V14.01,2013-06-10 01:03:00,
2013-06-09 18:08:00,76.5,25.4,29.82,SW,225,3.8,3.8,15,0.00,,---,0.04,VWS V14.01,2013-06-10 01:08:00,
2013-06-09 18:13:00,76.6,25.6,29.82,West,270,1.1,1.1,15,0.00,,---,0.04,VWS V14.01,2013-06-10 01:13:00,
2013-06-09 18:18:00,77.0,25.9,29.82,WSW,248,0.9,0.9,15,0.00,,---,0.04,VWS V14.01,2013-06-10 01:18:00,
2013-06-09 18:23:00,76.6,25.6,29.82,NW,315,2.0,2.0,15,0.00,,---,0.04,VWS V14.01,2013-06-10 01:23:00,
2013-06-09 18:28:00,76.5,25.4,29.82,WSW,248,1.3,1.3,15,0.00,,---,0.04,VWS V14.01,2013-06-10 01:28:00,
2013-06-09 18:33:00,75.9,25.0,29.82,West,270,0.0,0.0,15,0.00,,---,0.04,VWS V14.01,2013-06-10 01:33:00,
2013-06-09 18:38:00,75.7,24.9,29.82,NNW,338,1.6,1.6,15,0.00,,---,0.04,VWS V14.01,2013-06-10 01:38:00,
2013-06-09 18:43:00,75.7,24.9,29.79,WNW,292,0.9,0.9,15,0.00,,---,0.04,VWS V14.01,2013-06-10 01:43:00,
2013-06-09 18:48:00,75.4,24.6,29.79,WSW,248,0.0,0.0,15,0.00,,---,0.04,VWS V14.01,2013-06-10 01:48:00,
2013-06-09 18:54:00,75.4,24.6,29.79,NW,315,3.8,3.8,15,0.00,,---,0.04,VWS V14.01,2013-06-10 01:54:00,
2013-06-09 18:59:00,75.4,24.6,29.82,WSW,248,2.7,2.7,15,0.00,,---,0.04,VWS V14.01,2013-06-10 01:59:00,
2013-06-09 19:04:00,75.2,24.4,29.82,WNW,292,1.3,1.3,15,0.00,,---,0.04,VWS V14.01,2013-06-10 02:04:00,
2013-06-09 19:09:00,75.0,25.8,29.82,WSW,248,2.0,2.0,16,0.00,,---,0.04,VWS V14.01,2013-06-10 02:09:00,
2013-06-09 19:14:00,74.8,25.7,29.79,WSW,248,0.0,0.0,16,0.00,,---,0.04,VWS V14.01,2013-06-10 02:14:00,
2013-06-09 19:19:00,74.7,25.5,29.79,WSW,248,0.0,0.0,16,0.00,,---,0.04,VWS V14.01,2013-06-10 02:19:00,
2013-06-09 19:24:00,74.3,28.1,29.79,WSW,248,2.7,2.7,18,0.00,,---,0.04,VWS V14.01,2013-06-10 02:24:00,
2013-06-09 19:29:00,73.9,27.8,29.79,West,270,1.6,1.6,18,0.00,,---,0.04,VWS V14.01,2013-06-10 02:29:00,
2013-06-09 19:34:00,73.8,27.6,29.79,WSW,248,0.0,0.0,18,0.00,,---,0.04,VWS V14.01,2013-06-10 02:34:00,
2013-06-09 19:39:00,73.2,28.5,29.79,WSW,248,2.2,2.2,19,0.00,,---,0.04,VWS V14.01,2013-06-10 02:39:00,
2013-06-09 19:44:00,73.0,28.4,29.79,WSW,248,4.3,4.3,19,0.00,,---,0.04,VWS V14.01,2013-06-10 02:44:00,
2013-06-09 19:49:00,72.7,28.1,29.79,WSW,248,2.5,2.5,19,0.00,,---,0.04,VWS V14.01,2013-06-10 02:49:00,
2013-06-09 19:54:00,72.3,27.8,29.79,WSW,248,0.0,0.0,19,0.00,,---,0.04,VWS V14.01,2013-06-10 02:54:00,
2013-06-09 19:59:00,71.6,27.2,29.79,WSW,248,0.9,0.9,19,0.00,,---,0.04,VWS V14.01,2013-06-10 02:59:00,
2013-06-09 20:04:00,71.2,26.9,29.79,WSW,248,1.3,1.3,19,0.00,,---,0.04,VWS V14.01,2013-06-10 03:04:00,
2013-06-09 20:10:00,70.9,26.6,29.79,WSW,248,2.0,2.0,19,0.00,,---,0.04,VWS V14.01,2013-06-10 03:10:00,
2013-06-09 20:15:00,70.7,26.5,29.79,SW,225,0.0,0.0,19,0.00,,---,0.04,VWS V14.01,2013-06-10 03:15:00,
2013-06-09 20:20:00,70.3,26.2,29.79,SW,225,0.0,0.0,19,0.00,,---,0.04,VWS V14.01,2013-06-10 03:20:00,
2013-06-09 20:25:00,70.0,25.9,29.79,SW,225,0.0,0.0,19,0.00,,---,0.04,VWS V14.01,2013-06-10 03:25:00,
2013-06-09 20:30:00,69.6,26.8,29.76,SSW,202,0.0,0.0,20,0.00,,---,0.04,VWS V14.01,2013-06-10 03:30:00,
2013-06-09 20:35:00,68.9,28.5,29.76,SW,225,0.0,0.0,22,0.00,,---,0.04,VWS V14.01,2013-06-10 03:35:00,
2013-06-09 20:40:00,68.5,28.2,29.76,SW,225,0.0,0.0,22,0.00,,---,0.04,VWS V14.01,2013-06-10 03:40:00,
2013-06-09 20:45:00,68.0,27.8,29.76,SW,225,0.0,0.0,22,0.00,,---,0.04,VWS V14.01,2013-06-10 03:45:00,
2013-06-09 20:50:00,66.9,27.9,29.76,SW,225,0.0,0.0,23,0.00,,---,0.04,VWS V14.01,2013-06-10 03:50:00,
2013-06-09 20:55:00,66.2,27.3,29.76,SW,225,0.0,0.0,23,0.00,,---,0.04,VWS V14.01,2013-06-10 03:55:00,
2013-06-09 21:00:00,65.3,26.6,29.76,SW,225,0.0,0.0,23,0.00,,---,0.04,VWS V14.01,2013-06-10 04:00:00,
2013-06-09 21:01:00,65.3,26.6,29.76,SW,225,0.0,0.0,23,0.00,,---,0.04,VWS V14.01,2013-06-10 04:01:00,
2013-06-09 21:02:00,65.1,27.5,29.76,SW,225,0.0,0.0,24,0.00,,---,0.04,VWS V14.01,2013-06-10 04:02:00,
2013-06-09 21:03:00,64.8,27.2,29.76,SW,225,0.0,0.0,24,0.00,,---,0.04,VWS V14.01,2013-06-10 04:03:00,
2013-06-09 21:08:00,64.0,27.5,29.76,SW,225,0.0,0.0,25,0.00,,---,0.04,VWS V14.01,2013-06-10 04:08:00,
2013-06-09 21:13:00,63.5,27.1,29.76,SSW,202,0.0,0.0,25,0.00,,---,0.04,VWS V14.01,2013-06-10 04:13:00,
2013-06-09 21:18:00,63.3,26.9,29.76,SSW,202,0.0,0.0,25,0.00,,---,0.04,VWS V14.01,2013-06-10 04:18:00,
2013-06-09 21:23:00,62.6,27.3,29.76,SSW,202,0.0,0.0,26,0.00,,---,0.04,VWS V14.01,2013-06-10 04:23:00,
2013-06-09 21:28:00,62.4,27.1,29.76,SSW,202,0.0,0.0,26,0.00,,---,0.04,VWS V14.01,2013-06-10 04:28:00,
2013-06-09 21:33:00,62.1,27.7,29.76,SSW,202,0.0,0.0,27,0.00,,---,0.04,VWS V14.01,2013-06-10 04:33:00,
2013-06-09 21:38:00,61.7,27.4,29.76,SSW,202,0.0,0.0,27,0.00,,---,0.04,VWS V14.01,2013-06-10 04:38:00,
2013-06-09 21:43:00,61.9,27.6,29.79,SW,225,0.0,0.0,27,0.00,,---,0.04,VWS V14.01,2013-06-10 04:43:00,
2013-06-09 21:48:00,61.9,27.6,29.79,SW,225,0.0,0.0,27,0.00,,---,0.04,VWS V14.01,2013-06-10 04:48:00,
2013-06-09 21:53:00,61.5,26.3,29.79,SW,225,0.0,0.0,26,0.00,,---,0.04,VWS V14.01,2013-06-10 04:53:00,
2013-06-09 21:59:00,61.3,26.2,29.76,SW,225,0.0,0.0,26,0.00,,---,0.04,VWS V14.01,2013-06-10 04:59:00,
2013-06-09 22:04:00,61.3,26.2,29.76,SW,225,0.0,0.0,26,0.00,,---,0.04,VWS V14.01,2013-06-10 05:04:00,
2013-06-09 22:09:00,61.5,26.3,29.76,SW,225,0.0,0.0,26,0.00,,---,0.04,VWS V14.01,2013-06-10 05:09:00,
2013-06-09 22:14:00,61.5,26.3,29.76,SW,225,0.0,0.0,26,0.00,,---,0.04,VWS V14.01,2013-06-10 05:14:00,
2013-06-09 22:19:00,61.3,26.2,29.79,SW,225,0.0,0.0,26,0.00,,---,0.04,VWS V14.01,2013-06-10 05:19:00,
2013-06-09 22:24:00,61.7,25.5,29.79,SW,225,0.0,0.0,25,0.00,,---,0.04,VWS V14.01,2013-06-10 05:24:00,
2013-06-09 22:29:00,61.7,25.5,29.79,SW,225,0.0,0.0,25,0.00,,---,0.04,VWS V14.01,2013-06-10 05:29:00,
2013-06-09 22:34:00,61.7,25.5,29.79,SW,225,0.0,0.0,25,0.00,,---,0.04,VWS V14.01,2013-06-10 05:34:00,
2013-06-09 22:39:00,61.2,25.1,29.79,SW,225,0.0,0.0,25,0.00,,---,0.04,VWS V14.01,2013-06-10 05:39:00,
2013-06-09 22:44:00,61.0,24.9,29.79,SW,225,0.0,0.0,25,0.00,,---,0.04,VWS V14.01,2013-06-10 05:44:00,
2013-06-09 22:49:00,60.4,25.4,29.79,SSW,202,0.0,0.0,26,0.00,,---,0.04,VWS V14.01,2013-06-10 05:49:00,
2013-06-09 22:54:00,59.7,24.8,29.79,SSW,202,0.0,0.0,26,0.00,,---,0.04,VWS V14.01,2013-06-10 05:54:00,
2013-06-09 23:00:00,59.4,24.5,29.79,SSW,202,0.0,0.0,26,0.00,,---,0.04,VWS V14.01,2013-06-10 06:00:00,
2013-06-09 23:05:00,59.2,24.3,29.79,South,180,0.0,0.0,26,0.00,,---,0.04,VWS V14.01,2013-06-10 06:05:00,
2013-06-09 23:10:00,59.0,25.1,29.79,SSE,158,0.0,0.0,27,0.00,,---,0.04,VWS V14.01,2013-06-10 06:10:00,
2013-06-09 23:15:00,58.8,25.8,29.82,SSE,158,0.0,0.0,28,0.00,,---,0.04,VWS V14.01,2013-06-10 06:15:00,
2013-06-09 23:20:00,58.6,25.6,29.82,ENE,68,0.0,0.0,28,0.00,,---,0.04,VWS V14.01,2013-06-10 06:20:00,
2013-06-09 23:25:00,58.3,25.3,29.82,NE,45,0.0,0.0,28,0.00,,---,0.04,VWS V14.01,2013-06-10 06:25:00,
2013-06-09 23:30:00,58.1,25.2,29.79,NE,45,0.0,0.0,28,0.00,,---,0.04,VWS V14.01,2013-06-10 06:30:00,
2013-06-09 23:35:00,57.9,25.9,29.79,NE,45,0.0,0.0,29,0.00,,---,0.04,VWS V14.01,2013-06-10 06:35:00,
2013-06-09 23:40:00,57.6,25.6,29.79,NE,45,0.0,0.0,29,0.00,,---,0.04,VWS V14.01,2013-06-10 06:40:00,
2013-06-09 23:45:00,57.2,25.2,29.79,WNW,292,0.0,0.0,29,0.00,,---,0.04,VWS V14.01,2013-06-10 06:45:00,
2013-06-09 23:50:00,57.4,27.0,29.79,SSW,202,0.0,0.0,31,0.00,,---,0.04,VWS V14.01,2013-06-10 06:50:00,
2013-06-09 23:55:00,57.4,28.5,29.79,South,180,2.2,2.2,33,0.00,,---,0.04,VWS V14.01,2013-06-10 06:55:00,